sensor_id;sensor_type;location;lat;lon;timestamp;P1;durP1;ratioP1;P2;durP2;ratioP2
53881;SDS011;39794;55.782;37.452;2023-12-28T00:00:12;3.83;;;2.30;;
53881;SDS011;39794;55.782;37.452;2023-12-28T00:02:41;4.13;;;1.95;;
53881;SDS011;39794;55.782;37.452;2023-12-28T00:05:10;2.97;;;2.00;;
53881;SDS011;39794;55.782;37.452;2023-12-28T00:07:38;3.13;;;2.10;;
53881;SDS011;39794;55.782;37.452;2023-12-28T00:10:07;4.53;;;2.00;;
53881;SDS011;39794;55.782;37.452;2023-12-28T00:12:36;3.08;;;1.90;;
53881;SDS011;39794;55.782;37.452;2023-12-28T00:15:07;4.25;;;2.03;;
53881;SDS011;39794;55.782;37.452;2023-12-28T00:17:36;3.63;;;2.10;;
53881;SDS011;39794;55.782;37.452;2023-12-28T00:20:18;3.45;;;1.85;;
53881;SDS011;39794;55.782;37.452;2023-12-28T00:22:46;3.83;;;2.13;;
53881;SDS011;39794;55.782;37.452;2023-12-28T00:25:15;2.85;;;1.58;;
53881;SDS011;39794;55.782;37.452;2023-12-28T00:27:46;2.55;;;1.75;;
53881;SDS011;39794;55.782;37.452;2023-12-28T00:30:17;2.10;;;1.55;;
53881;SDS011;39794;55.782;37.452;2023-12-28T00:32:46;2.97;;;1.85;;
53881;SDS011;39794;55.782;37.452;2023-12-28T00:35:14;3.88;;;1.77;;
53881;SDS011;39794;55.782;37.452;2023-12-28T00:37:43;2.25;;;1.83;;
53881;SDS011;39794;55.782;37.452;2023-12-28T00:40:12;2.92;;;1.95;;
53881;SDS011;39794;55.782;37.452;2023-12-28T00:42:40;2.50;;;1.85;;
53881;SDS011;39794;55.782;37.452;2023-12-28T00:45:09;2.00;;;1.52;;
53881;SDS011;39794;55.782;37.452;2023-12-28T00:47:39;2.70;;;1.90;;
53881;SDS011;39794;55.782;37.452;2023-12-28T00:50:10;2.35;;;1.63;;
53881;SDS011;39794;55.782;37.452;2023-12-28T00:52:42;3.15;;;1.65;;
53881;SDS011;39794;55.782;37.452;2023-12-28T00:55:10;2.25;;;1.80;;
53881;SDS011;39794;55.782;37.452;2023-12-28T00:57:43;3.25;;;1.80;;
53881;SDS011;39794;55.782;37.452;2023-12-28T01:00:12;3.85;;;1.77;;
53881;SDS011;39794;55.782;37.452;2023-12-28T01:02:43;2.70;;;1.60;;
53881;SDS011;39794;55.782;37.452;2023-12-28T01:05:15;2.60;;;1.80;;
53881;SDS011;39794;55.782;37.452;2023-12-28T01:07:43;3.05;;;1.88;;
53881;SDS011;39794;55.782;37.452;2023-12-28T01:13:06;2.15;;;1.55;;
53881;SDS011;39794;55.782;37.452;2023-12-28T01:15:35;2.30;;;1.70;;
53881;SDS011;39794;55.782;37.452;2023-12-28T01:18:05;4.50;;;1.80;;
53881;SDS011;39794;55.782;37.452;2023-12-28T01:20:34;3.17;;;1.42;;
53881;SDS011;39794;55.782;37.452;2023-12-28T01:23:03;1.95;;;1.42;;
53881;SDS011;39794;55.782;37.452;2023-12-28T01:25:32;2.88;;;1.70;;
53881;SDS011;39794;55.782;37.452;2023-12-28T01:28:02;2.65;;;1.70;;
53881;SDS011;39794;55.782;37.452;2023-12-28T01:30:31;2.53;;;1.40;;
53881;SDS011;39794;55.782;37.452;2023-12-28T01:33:02;2.35;;;1.55;;
53881;SDS011;39794;55.782;37.452;2023-12-28T01:35:32;1.98;;;1.40;;
53881;SDS011;39794;55.782;37.452;2023-12-28T01:38:01;2.22;;;1.67;;
53881;SDS011;39794;55.782;37.452;2023-12-28T01:40:30;2.20;;;1.58;;
53881;SDS011;39794;55.782;37.452;2023-12-28T01:42:59;3.03;;;1.50;;
53881;SDS011;39794;55.782;37.452;2023-12-28T01:45:27;2.67;;;1.75;;
53881;SDS011;39794;55.782;37.452;2023-12-28T01:47:56;1.95;;;1.50;;
53881;SDS011;39794;55.782;37.452;2023-12-28T01:50:27;2.03;;;1.45;;
53881;SDS011;39794;55.782;37.452;2023-12-28T01:52:58;3.47;;;1.70;;
53881;SDS011;39794;55.782;37.452;2023-12-28T01:55:28;2.47;;;1.27;;
53881;SDS011;39794;55.782;37.452;2023-12-28T01:57:58;1.98;;;1.38;;
53881;SDS011;39794;55.782;37.452;2023-12-28T02:00:27;2.88;;;1.60;;
53881;SDS011;39794;55.782;37.452;2023-12-28T02:02:56;3.20;;;1.75;;
53881;SDS011;39794;55.782;37.452;2023-12-28T02:05:24;2.53;;;1.70;;
53881;SDS011;39794;55.782;37.452;2023-12-28T02:07:52;2.95;;;1.75;;
53881;SDS011;39794;55.782;37.452;2023-12-28T02:10:24;4.03;;;1.77;;
53881;SDS011;39794;55.782;37.452;2023-12-28T02:12:53;2.78;;;2.10;;
53881;SDS011;39794;55.782;37.452;2023-12-28T02:15:22;3.50;;;1.70;;
53881;SDS011;39794;55.782;37.452;2023-12-28T02:17:54;3.28;;;1.52;;
53881;SDS011;39794;55.782;37.452;2023-12-28T02:20:28;2.65;;;1.70;;
53881;SDS011;39794;55.782;37.452;2023-12-28T02:22:57;2.40;;;1.65;;
53881;SDS011;39794;55.782;37.452;2023-12-28T02:25:28;2.63;;;1.50;;
53881;SDS011;39794;55.782;37.452;2023-12-28T02:27:56;2.65;;;1.73;;
53881;SDS011;39794;55.782;37.452;2023-12-28T02:30:26;2.63;;;1.92;;
53881;SDS011;39794;55.782;37.452;2023-12-28T02:33:00;2.95;;;1.90;;
53881;SDS011;39794;55.782;37.452;2023-12-28T02:35:34;2.78;;;1.63;;
53881;SDS011;39794;55.782;37.452;2023-12-28T02:38:06;2.47;;;1.70;;
53881;SDS011;39794;55.782;37.452;2023-12-28T02:40:38;3.42;;;1.90;;
53881;SDS011;39794;55.782;37.452;2023-12-28T02:43:08;2.95;;;1.80;;
53881;SDS011;39794;55.782;37.452;2023-12-28T02:45:37;3.17;;;1.85;;
53881;SDS011;39794;55.782;37.452;2023-12-28T02:48:07;2.95;;;2.17;;
53881;SDS011;39794;55.782;37.452;2023-12-28T02:50:36;2.53;;;1.60;;
53881;SDS011;39794;55.782;37.452;2023-12-28T02:53:05;3.25;;;2.10;;
53881;SDS011;39794;55.782;37.452;2023-12-28T02:55:34;2.42;;;1.88;;
53881;SDS011;39794;55.782;37.452;2023-12-28T02:58:04;1.67;;;1.58;;
53881;SDS011;39794;55.782;37.452;2023-12-28T03:00:33;3.67;;;2.28;;
53881;SDS011;39794;55.782;37.452;2023-12-28T03:03:02;1.83;;;1.50;;
53881;SDS011;39794;55.782;37.452;2023-12-28T03:05:31;4.93;;;2.10;;
53881;SDS011;39794;55.782;37.452;2023-12-28T03:08:00;3.58;;;2.00;;
53881;SDS011;39794;55.782;37.452;2023-12-28T03:10:29;2.33;;;1.60;;
53881;SDS011;39794;55.782;37.452;2023-12-28T03:12:58;1.77;;;1.45;;
53881;SDS011;39794;55.782;37.452;2023-12-28T03:15:29;2.20;;;1.42;;
53881;SDS011;39794;55.782;37.452;2023-12-28T03:17:57;2.97;;;1.70;;
53881;SDS011;39794;55.782;37.452;2023-12-28T03:20:26;2.90;;;1.92;;
53881;SDS011;39794;55.782;37.452;2023-12-28T03:22:55;3.15;;;1.92;;
53881;SDS011;39794;55.782;37.452;2023-12-28T03:25:23;3.10;;;2.03;;
53881;SDS011;39794;55.782;37.452;2023-12-28T03:27:52;3.70;;;1.98;;
53881;SDS011;39794;55.782;37.452;2023-12-28T03:30:22;3.13;;;1.95;;
53881;SDS011;39794;55.782;37.452;2023-12-28T03:32:52;3.58;;;2.00;;
53881;SDS011;39794;55.782;37.452;2023-12-28T03:35:21;2.60;;;2.03;;
53881;SDS011;39794;55.782;37.452;2023-12-28T03:37:49;4.03;;;1.80;;
53881;SDS011;39794;55.782;37.452;2023-12-28T03:40:18;2.58;;;1.98;;
53881;SDS011;39794;55.782;37.452;2023-12-28T03:42:47;3.28;;;1.73;;
53881;SDS011;39794;55.782;37.452;2023-12-28T03:45:16;2.53;;;2.10;;
53881;SDS011;39794;55.782;37.452;2023-12-28T03:47:45;3.10;;;1.70;;
53881;SDS011;39794;55.782;37.452;2023-12-28T03:50:16;4.45;;;2.38;;
53881;SDS011;39794;55.782;37.452;2023-12-28T03:52:45;3.88;;;2.05;;
53881;SDS011;39794;55.782;37.452;2023-12-28T03:55:13;1.67;;;1.45;;
53881;SDS011;39794;55.782;37.452;2023-12-28T03:57:42;2.60;;;1.65;;
53881;SDS011;39794;55.782;37.452;2023-12-28T04:00:13;3.05;;;2.22;;
53881;SDS011;39794;55.782;37.452;2023-12-28T04:02:43;2.20;;;1.65;;
53881;SDS011;39794;55.782;37.452;2023-12-28T04:05:13;2.35;;;1.70;;
53881;SDS011;39794;55.782;37.452;2023-12-28T04:07:43;3.78;;;1.75;;
53881;SDS011;39794;55.782;37.452;2023-12-28T04:10:12;4.10;;;1.92;;
53881;SDS011;39794;55.782;37.452;2023-12-28T04:12:41;2.45;;;1.88;;
53881;SDS011;39794;55.782;37.452;2023-12-28T04:15:09;2.85;;;2.08;;
53881;SDS011;39794;55.782;37.452;2023-12-28T04:17:37;3.88;;;2.00;;
53881;SDS011;39794;55.782;37.452;2023-12-28T04:20:06;4.60;;;2.17;;
53881;SDS011;39794;55.782;37.452;2023-12-28T04:22:36;3.05;;;2.35;;
53881;SDS011;39794;55.782;37.452;2023-12-28T04:25:06;3.20;;;2.05;;
53881;SDS011;39794;55.782;37.452;2023-12-28T04:27:35;4.43;;;2.10;;
53881;SDS011;39794;55.782;37.452;2023-12-28T04:30:04;2.17;;;1.85;;
53881;SDS011;39794;55.782;37.452;2023-12-28T04:32:33;2.92;;;1.75;;
53881;SDS011;39794;55.782;37.452;2023-12-28T04:35:02;5.82;;;1.85;;
53881;SDS011;39794;55.782;37.452;2023-12-28T04:37:33;2.75;;;1.63;;
53881;SDS011;39794;55.782;37.452;2023-12-28T04:40:02;2.22;;;1.58;;
53881;SDS011;39794;55.782;37.452;2023-12-28T04:42:33;2.85;;;1.80;;
53881;SDS011;39794;55.782;37.452;2023-12-28T04:45:03;1.83;;;1.33;;
53881;SDS011;39794;55.782;37.452;2023-12-28T04:47:33;3.25;;;1.83;;
53881;SDS011;39794;55.782;37.452;2023-12-28T04:50:01;2.95;;;1.83;;
53881;SDS011;39794;55.782;37.452;2023-12-28T04:52:30;3.28;;;2.13;;
53881;SDS011;39794;55.782;37.452;2023-12-28T04:55:00;2.70;;;2.05;;
53881;SDS011;39794;55.782;37.452;2023-12-28T04:57:30;3.17;;;2.13;;
53881;SDS011;39794;55.782;37.452;2023-12-28T05:00:00;3.45;;;1.90;;
53881;SDS011;39794;55.782;37.452;2023-12-28T05:02:30;2.88;;;2.10;;
53881;SDS011;39794;55.782;37.452;2023-12-28T05:04:59;5.13;;;2.58;;
53881;SDS011;39794;55.782;37.452;2023-12-28T05:07:30;3.00;;;1.80;;
53881;SDS011;39794;55.782;37.452;2023-12-28T05:09:58;4.32;;;2.63;;
53881;SDS011;39794;55.782;37.452;2023-12-28T05:12:29;2.25;;;1.92;;
53881;SDS011;39794;55.782;37.452;2023-12-28T05:15:11;2.97;;;1.95;;
53881;SDS011;39794;55.782;37.452;2023-12-28T05:17:39;5.35;;;2.45;;
53881;SDS011;39794;55.782;37.452;2023-12-28T05:20:08;7.68;;;3.20;;
53881;SDS011;39794;55.782;37.452;2023-12-28T05:22:37;3.10;;;2.13;;
53881;SDS011;39794;55.782;37.452;2023-12-28T05:25:06;2.45;;;1.98;;
53881;SDS011;39794;55.782;37.452;2023-12-28T05:27:35;2.67;;;2.00;;
53881;SDS011;39794;55.782;37.452;2023-12-28T05:30:04;3.45;;;2.28;;
53881;SDS011;39794;55.782;37.452;2023-12-28T05:32:36;3.25;;;2.05;;
53881;SDS011;39794;55.782;37.452;2023-12-28T05:35:05;2.13;;;1.63;;
53881;SDS011;39794;55.782;37.452;2023-12-28T05:37:34;6.95;;;2.08;;
53881;SDS011;39794;55.782;37.452;2023-12-28T05:40:04;5.05;;;2.25;;
53881;SDS011;39794;55.782;37.452;2023-12-28T05:42:33;3.03;;;1.95;;
53881;SDS011;39794;55.782;37.452;2023-12-28T05:45:02;3.35;;;2.00;;
53881;SDS011;39794;55.782;37.452;2023-12-28T05:47:31;3.97;;;2.10;;
53881;SDS011;39794;55.782;37.452;2023-12-28T05:50:05;2.40;;;1.90;;
53881;SDS011;39794;55.782;37.452;2023-12-28T05:52:33;2.70;;;1.85;;
53881;SDS011;39794;55.782;37.452;2023-12-28T05:55:02;3.67;;;1.80;;
53881;SDS011;39794;55.782;37.452;2023-12-28T05:57:31;3.88;;;2.00;;
53881;SDS011;39794;55.782;37.452;2023-12-28T06:00:00;3.00;;;2.42;;
53881;SDS011;39794;55.782;37.452;2023-12-28T06:02:38;5.25;;;2.67;;
53881;SDS011;39794;55.782;37.452;2023-12-28T06:05:08;3.13;;;1.92;;
53881;SDS011;39794;55.782;37.452;2023-12-28T06:07:37;2.45;;;1.55;;
53881;SDS011;39794;55.782;37.452;2023-12-28T06:10:06;3.30;;;2.30;;
53881;SDS011;39794;55.782;37.452;2023-12-28T06:12:35;3.78;;;2.28;;
53881;SDS011;39794;55.782;37.452;2023-12-28T06:15:04;2.45;;;1.92;;
53881;SDS011;39794;55.782;37.452;2023-12-28T06:17:34;5.30;;;2.22;;
53881;SDS011;39794;55.782;37.452;2023-12-28T06:20:03;3.58;;;1.80;;
53881;SDS011;39794;55.782;37.452;2023-12-28T06:22:36;3.95;;;2.22;;
53881;SDS011;39794;55.782;37.452;2023-12-28T06:25:04;4.05;;;2.60;;
53881;SDS011;39794;55.782;37.452;2023-12-28T06:27:34;3.03;;;2.28;;
53881;SDS011;39794;55.782;37.452;2023-12-28T06:30:04;3.25;;;2.17;;
53881;SDS011;39794;55.782;37.452;2023-12-28T06:32:33;3.88;;;2.33;;
53881;SDS011;39794;55.782;37.452;2023-12-28T06:35:02;4.03;;;2.40;;
53881;SDS011;39794;55.782;37.452;2023-12-28T06:37:31;4.88;;;2.60;;
53881;SDS011;39794;55.782;37.452;2023-12-28T06:40:01;2.95;;;1.90;;
53881;SDS011;39794;55.782;37.452;2023-12-28T06:42:30;5.65;;;2.67;;
53881;SDS011;39794;55.782;37.452;2023-12-28T06:44:59;4.68;;;2.60;;
53881;SDS011;39794;55.782;37.452;2023-12-28T06:47:30;2.67;;;2.13;;
53881;SDS011;39794;55.782;37.452;2023-12-28T06:49:59;5.10;;;2.67;;
53881;SDS011;39794;55.782;37.452;2023-12-28T06:52:30;4.40;;;2.67;;
53881;SDS011;39794;55.782;37.452;2023-12-28T06:54:58;4.50;;;2.28;;
53881;SDS011;39794;55.782;37.452;2023-12-28T06:57:31;3.83;;;2.30;;
53881;SDS011;39794;55.782;37.452;2023-12-28T07:00:00;3.58;;;2.25;;
53881;SDS011;39794;55.782;37.452;2023-12-28T07:02:33;4.75;;;2.53;;
53881;SDS011;39794;55.782;37.452;2023-12-28T07:05:02;4.32;;;2.92;;
53881;SDS011;39794;55.782;37.452;2023-12-28T07:07:31;3.17;;;2.20;;
53881;SDS011;39794;55.782;37.452;2023-12-28T07:10:00;3.15;;;2.05;;
53881;SDS011;39794;55.782;37.452;2023-12-28T07:12:30;2.70;;;2.10;;
53881;SDS011;39794;55.782;37.452;2023-12-28T07:15:00;3.58;;;2.20;;
53881;SDS011;39794;55.782;37.452;2023-12-28T07:17:31;4.60;;;2.42;;
53881;SDS011;39794;55.782;37.452;2023-12-28T07:20:00;4.97;;;2.50;;
53881;SDS011;39794;55.782;37.452;2023-12-28T07:22:30;4.07;;;2.70;;
53881;SDS011;39794;55.782;37.452;2023-12-28T07:24:59;4.88;;;2.42;;
53881;SDS011;39794;55.782;37.452;2023-12-28T07:27:29;3.25;;;2.13;;
53881;SDS011;39794;55.782;37.452;2023-12-28T07:29:59;10.52;;;4.35;;
53881;SDS011;39794;55.782;37.452;2023-12-28T07:32:29;4.97;;;3.13;;
53881;SDS011;39794;55.782;37.452;2023-12-28T07:34:58;3.45;;;2.58;;
53881;SDS011;39794;55.782;37.452;2023-12-28T07:37:27;3.33;;;2.35;;
53881;SDS011;39794;55.782;37.452;2023-12-28T07:39:55;5.47;;;2.42;;
53881;SDS011;39794;55.782;37.452;2023-12-28T07:42:24;4.15;;;2.92;;
53881;SDS011;39794;55.782;37.452;2023-12-28T07:44:53;3.10;;;2.45;;
53881;SDS011;39794;55.782;37.452;2023-12-28T07:47:23;3.53;;;2.20;;
53881;SDS011;39794;55.782;37.452;2023-12-28T07:49:52;3.35;;;1.90;;
53881;SDS011;39794;55.782;37.452;2023-12-28T07:52:20;3.30;;;2.25;;
53881;SDS011;39794;55.782;37.452;2023-12-28T07:54:49;2.40;;;1.95;;
53881;SDS011;39794;55.782;37.452;2023-12-28T07:57:18;2.75;;;1.85;;
53881;SDS011;39794;55.782;37.452;2023-12-28T07:59:46;1.70;;;1.60;;
53881;SDS011;39794;55.782;37.452;2023-12-28T08:02:15;2.38;;;1.83;;
53881;SDS011;39794;55.782;37.452;2023-12-28T08:04:48;2.33;;;1.92;;
53881;SDS011;39794;55.782;37.452;2023-12-28T08:07:17;4.95;;;2.22;;
53881;SDS011;39794;55.782;37.452;2023-12-28T08:09:46;9.65;;;3.63;;
53881;SDS011;39794;55.782;37.452;2023-12-28T08:12:14;5.35;;;2.90;;
53881;SDS011;39794;55.782;37.452;2023-12-28T08:14:44;3.22;;;1.83;;
53881;SDS011;39794;55.782;37.452;2023-12-28T08:17:13;2.95;;;1.90;;
53881;SDS011;39794;55.782;37.452;2023-12-28T08:19:41;3.08;;;1.73;;
53881;SDS011;39794;55.782;37.452;2023-12-28T08:22:11;2.95;;;1.95;;
53881;SDS011;39794;55.782;37.452;2023-12-28T08:24:40;4.18;;;2.42;;
53881;SDS011;39794;55.782;37.452;2023-12-28T08:27:08;3.97;;;2.67;;
53881;SDS011;39794;55.782;37.452;2023-12-28T08:29:37;4.43;;;3.05;;
53881;SDS011;39794;55.782;37.452;2023-12-28T08:32:06;3.75;;;2.40;;
53881;SDS011;39794;55.782;37.452;2023-12-28T08:34:34;3.50;;;2.60;;
53881;SDS011;39794;55.782;37.452;2023-12-28T08:37:04;3.13;;;2.33;;
53881;SDS011;39794;55.782;37.452;2023-12-28T08:39:34;2.20;;;2.00;;
53881;SDS011;39794;55.782;37.452;2023-12-28T08:42:03;4.13;;;2.65;;
53881;SDS011;39794;55.782;37.452;2023-12-28T08:44:32;2.70;;;2.03;;
53881;SDS011;39794;55.782;37.452;2023-12-28T08:47:00;4.22;;;2.20;;
53881;SDS011;39794;55.782;37.452;2023-12-28T08:49:29;5.15;;;2.03;;
53881;SDS011;39794;55.782;37.452;2023-12-28T08:52:02;3.28;;;1.98;;
53881;SDS011;39794;55.782;37.452;2023-12-28T08:54:31;4.78;;;2.60;;
53881;SDS011;39794;55.782;37.452;2023-12-28T08:57:01;5.05;;;2.33;;
53881;SDS011;39794;55.782;37.452;2023-12-28T08:59:29;4.50;;;2.10;;
53881;SDS011;39794;55.782;37.452;2023-12-28T09:01:58;4.25;;;2.38;;
53881;SDS011;39794;55.782;37.452;2023-12-28T09:04:28;3.30;;;2.15;;
53881;SDS011;39794;55.782;37.452;2023-12-28T09:06:57;8.68;;;3.92;;
53881;SDS011;39794;55.782;37.452;2023-12-28T09:09:26;6.35;;;3.05;;
53881;SDS011;39794;55.782;37.452;2023-12-28T09:11:54;6.53;;;3.15;;
53881;SDS011;39794;55.782;37.452;2023-12-28T09:14:24;7.28;;;3.40;;
53881;SDS011;39794;55.782;37.452;2023-12-28T09:16:53;6.60;;;3.78;;
53881;SDS011;39794;55.782;37.452;2023-12-28T09:19:22;5.55;;;3.22;;
53881;SDS011;39794;55.782;37.452;2023-12-28T09:21:50;3.33;;;2.53;;
53881;SDS011;39794;55.782;37.452;2023-12-28T09:24:19;5.45;;;2.60;;
53881;SDS011;39794;55.782;37.452;2023-12-28T09:26:47;5.18;;;2.90;;
53881;SDS011;39794;55.782;37.452;2023-12-28T09:29:16;4.43;;;2.80;;
53881;SDS011;39794;55.782;37.452;2023-12-28T09:31:46;2.88;;;2.17;;
53881;SDS011;39794;55.782;37.452;2023-12-28T09:34:16;3.83;;;2.47;;
53881;SDS011;39794;55.782;37.452;2023-12-28T09:36:44;3.40;;;2.67;;
53881;SDS011;39794;55.782;37.452;2023-12-28T09:39:15;3.65;;;2.25;;
53881;SDS011;39794;55.782;37.452;2023-12-28T09:41:45;2.90;;;2.33;;
53881;SDS011;39794;55.782;37.452;2023-12-28T09:44:17;2.72;;;2.45;;
53881;SDS011;39794;55.782;37.452;2023-12-28T09:46:48;3.13;;;2.13;;
53881;SDS011;39794;55.782;37.452;2023-12-28T09:49:16;3.13;;;2.40;;
53881;SDS011;39794;55.782;37.452;2023-12-28T09:51:46;3.35;;;2.55;;
53881;SDS011;39794;55.782;37.452;2023-12-28T09:54:14;4.13;;;2.20;;
53881;SDS011;39794;55.782;37.452;2023-12-28T09:56:45;3.58;;;2.50;;
53881;SDS011;39794;55.782;37.452;2023-12-28T09:59:14;4.30;;;2.47;;
53881;SDS011;39794;55.782;37.452;2023-12-28T10:01:45;6.53;;;2.97;;
53881;SDS011;39794;55.782;37.452;2023-12-28T10:04:16;3.10;;;2.33;;
53881;SDS011;39794;55.782;37.452;2023-12-28T10:06:45;4.05;;;2.38;;
53881;SDS011;39794;55.782;37.452;2023-12-28T10:09:13;2.95;;;2.10;;
53881;SDS011;39794;55.782;37.452;2023-12-28T10:11:42;2.22;;;1.85;;
53881;SDS011;39794;55.782;37.452;2023-12-28T10:14:11;4.07;;;2.35;;
53881;SDS011;39794;55.782;37.452;2023-12-28T10:16:40;2.70;;;2.25;;
53881;SDS011;39794;55.782;37.452;2023-12-28T10:19:09;3.13;;;2.47;;
53881;SDS011;39794;55.782;37.452;2023-12-28T10:21:40;2.42;;;2.10;;
53881;SDS011;39794;55.782;37.452;2023-12-28T10:24:10;4.57;;;2.40;;
53881;SDS011;39794;55.782;37.452;2023-12-28T10:26:39;3.58;;;2.30;;
53881;SDS011;39794;55.782;37.452;2023-12-28T10:29:07;2.95;;;2.03;;
53881;SDS011;39794;55.782;37.452;2023-12-28T10:31:37;5.78;;;2.75;;
53881;SDS011;39794;55.782;37.452;2023-12-28T10:34:10;4.32;;;2.10;;
53881;SDS011;39794;55.782;37.452;2023-12-28T10:36:41;3.20;;;2.25;;
53881;SDS011;39794;55.782;37.452;2023-12-28T10:39:09;3.30;;;2.35;;
53881;SDS011;39794;55.782;37.452;2023-12-28T10:41:40;3.55;;;2.38;;
53881;SDS011;39794;55.782;37.452;2023-12-28T10:44:09;7.55;;;3.58;;
53881;SDS011;39794;55.782;37.452;2023-12-28T10:46:39;3.85;;;2.30;;
53881;SDS011;39794;55.782;37.452;2023-12-28T10:49:10;4.25;;;2.42;;
53881;SDS011;39794;55.782;37.452;2023-12-28T10:51:42;2.92;;;2.20;;
53881;SDS011;39794;55.782;37.452;2023-12-28T10:54:17;3.35;;;1.95;;
53881;SDS011;39794;55.782;37.452;2023-12-28T10:56:55;2.17;;;1.98;;
53881;SDS011;39794;55.782;37.452;2023-12-28T10:59:30;4.65;;;3.10;;
53881;SDS011;39794;55.782;37.452;2023-12-28T11:02:16;4.07;;;2.40;;
53881;SDS011;39794;55.782;37.452;2023-12-28T11:04:49;2.50;;;1.55;;
53881;SDS011;39794;55.782;37.452;2023-12-28T11:07:21;2.55;;;1.88;;
53881;SDS011;39794;55.782;37.452;2023-12-28T11:09:49;3.13;;;2.10;;
53881;SDS011;39794;55.782;37.452;2023-12-28T11:12:19;3.03;;;2.10;;
53881;SDS011;39794;55.782;37.452;2023-12-28T11:14:48;2.85;;;2.28;;
53881;SDS011;39794;55.782;37.452;2023-12-28T11:17:18;4.35;;;2.15;;
53881;SDS011;39794;55.782;37.452;2023-12-28T11:19:47;2.72;;;2.20;;
53881;SDS011;39794;55.782;37.452;2023-12-28T11:22:16;3.50;;;2.40;;
53881;SDS011;39794;55.782;37.452;2023-12-28T11:24:47;3.67;;;2.50;;
53881;SDS011;39794;55.782;37.452;2023-12-28T11:27:15;2.85;;;2.00;;
53881;SDS011;39794;55.782;37.452;2023-12-28T11:29:44;5.68;;;2.40;;
53881;SDS011;39794;55.782;37.452;2023-12-28T11:32:13;3.28;;;2.08;;
53881;SDS011;39794;55.782;37.452;2023-12-28T11:34:42;3.83;;;2.40;;
53881;SDS011;39794;55.782;37.452;2023-12-28T11:37:12;4.40;;;2.28;;
53881;SDS011;39794;55.782;37.452;2023-12-28T11:39:47;3.22;;;2.13;;
53881;SDS011;39794;55.782;37.452;2023-12-28T11:42:19;2.25;;;1.92;;
53881;SDS011;39794;55.782;37.452;2023-12-28T11:44:53;4.20;;;2.15;;
53881;SDS011;39794;55.782;37.452;2023-12-28T11:47:23;3.25;;;2.08;;
53881;SDS011;39794;55.782;37.452;2023-12-28T11:49:54;3.10;;;2.00;;
53881;SDS011;39794;55.782;37.452;2023-12-28T11:52:23;4.03;;;1.90;;
53881;SDS011;39794;55.782;37.452;2023-12-28T11:54:54;2.25;;;2.05;;
53881;SDS011;39794;55.782;37.452;2023-12-28T11:57:23;2.95;;;1.70;;
53881;SDS011;39794;55.782;37.452;2023-12-28T11:59:53;2.33;;;1.90;;
53881;SDS011;39794;55.782;37.452;2023-12-28T12:02:23;3.28;;;2.20;;
53881;SDS011;39794;55.782;37.452;2023-12-28T12:04:53;1.60;;;1.50;;
53881;SDS011;39794;55.782;37.452;2023-12-28T12:07:23;2.38;;;1.95;;
53881;SDS011;39794;55.782;37.452;2023-12-28T12:09:56;1.60;;;1.50;;
53881;SDS011;39794;55.782;37.452;2023-12-28T12:12:26;2.05;;;1.85;;
53881;SDS011;39794;55.782;37.452;2023-12-28T12:14:55;3.00;;;1.77;;
53881;SDS011;39794;55.782;37.452;2023-12-28T12:17:24;2.45;;;1.80;;
53881;SDS011;39794;55.782;37.452;2023-12-28T12:19:54;3.42;;;1.77;;
53881;SDS011;39794;55.782;37.452;2023-12-28T12:22:25;1.42;;;1.30;;
53881;SDS011;39794;55.782;37.452;2023-12-28T12:24:57;1.27;;;1.08;;
53881;SDS011;39794;55.782;37.452;2023-12-28T12:27:30;1.83;;;1.27;;
53881;SDS011;39794;55.782;37.452;2023-12-28T12:29:59;1.83;;;1.42;;
53881;SDS011;39794;55.782;37.452;2023-12-28T12:32:30;4.28;;;2.28;;
53881;SDS011;39794;55.782;37.452;2023-12-28T12:35:00;1.75;;;1.30;;
53881;SDS011;39794;55.782;37.452;2023-12-28T12:37:29;2.10;;;1.60;;
53881;SDS011;39794;55.782;37.452;2023-12-28T12:39:59;2.03;;;1.20;;
53881;SDS011;39794;55.782;37.452;2023-12-28T12:42:30;1.77;;;1.23;;
53881;SDS011;39794;55.782;37.452;2023-12-28T12:45:01;4.60;;;1.40;;
53881;SDS011;39794;55.782;37.452;2023-12-28T12:47:32;2.40;;;1.42;;
53881;SDS011;39794;55.782;37.452;2023-12-28T12:50:02;2.22;;;1.50;;
53881;SDS011;39794;55.782;37.452;2023-12-28T12:52:31;2.15;;;1.20;;
53881;SDS011;39794;55.782;37.452;2023-12-28T12:55:01;2.50;;;1.88;;
53881;SDS011;39794;55.782;37.452;2023-12-28T12:57:30;2.33;;;1.65;;
53881;SDS011;39794;55.782;37.452;2023-12-28T12:59:59;2.13;;;1.52;;
53881;SDS011;39794;55.782;37.452;2023-12-28T13:02:30;1.60;;;1.40;;
53881;SDS011;39794;55.782;37.452;2023-12-28T13:04:58;1.83;;;1.48;;
53881;SDS011;39794;55.782;37.452;2023-12-28T13:07:29;2.50;;;1.88;;
53881;SDS011;39794;55.782;37.452;2023-12-28T13:09:57;2.47;;;1.88;;
53881;SDS011;39794;55.782;37.452;2023-12-28T13:12:27;2.88;;;2.03;;
53881;SDS011;39794;55.782;37.452;2023-12-28T13:14:56;3.22;;;2.03;;
53881;SDS011;39794;55.782;37.452;2023-12-28T13:17:25;2.90;;;2.42;;
53881;SDS011;39794;55.782;37.452;2023-12-28T13:19:53;4.03;;;2.65;;
53881;SDS011;39794;55.782;37.452;2023-12-28T13:22:22;3.92;;;2.33;;
53881;SDS011;39794;55.782;37.452;2023-12-28T13:24:51;3.95;;;2.42;;
53881;SDS011;39794;55.782;37.452;2023-12-28T13:27:19;2.35;;;1.58;;
53881;SDS011;39794;55.782;37.452;2023-12-28T13:29:49;2.63;;;2.13;;
53881;SDS011;39794;55.782;37.452;2023-12-28T13:32:18;5.88;;;2.08;;
53881;SDS011;39794;55.782;37.452;2023-12-28T13:34:47;3.58;;;2.15;;
53881;SDS011;39794;55.782;37.452;2023-12-28T13:37:18;3.78;;;2.30;;
53881;SDS011;39794;55.782;37.452;2023-12-28T13:39:46;3.13;;;2.33;;
53881;SDS011;39794;55.782;37.452;2023-12-28T13:42:15;4.05;;;2.72;;
53881;SDS011;39794;55.782;37.452;2023-12-28T13:44:43;4.05;;;2.95;;
53881;SDS011;39794;55.782;37.452;2023-12-28T13:47:13;4.65;;;2.97;;
53881;SDS011;39794;55.782;37.452;2023-12-28T13:49:42;4.88;;;3.10;;
53881;SDS011;39794;55.782;37.452;2023-12-28T13:52:11;5.75;;;2.72;;
53881;SDS011;39794;55.782;37.452;2023-12-28T13:54:39;3.85;;;2.30;;
53881;SDS011;39794;55.782;37.452;2023-12-28T13:57:08;3.35;;;2.33;;
53881;SDS011;39794;55.782;37.452;2023-12-28T13:59:37;3.30;;;2.42;;
53881;SDS011;39794;55.782;37.452;2023-12-28T14:02:06;3.08;;;2.30;;
53881;SDS011;39794;55.782;37.452;2023-12-28T14:04:36;4.13;;;2.30;;
53881;SDS011;39794;55.782;37.452;2023-12-28T14:07:05;4.18;;;2.33;;
53881;SDS011;39794;55.782;37.452;2023-12-28T14:09:34;3.72;;;2.40;;
53881;SDS011;39794;55.782;37.452;2023-12-28T14:12:03;2.97;;;2.08;;
53881;SDS011;39794;55.782;37.452;2023-12-28T14:14:32;5.07;;;2.42;;
53881;SDS011;39794;55.782;37.452;2023-12-28T14:17:01;2.85;;;2.15;;
53881;SDS011;39794;55.782;37.452;2023-12-28T14:19:31;3.83;;;2.95;;
53881;SDS011;39794;55.782;37.452;2023-12-28T14:22:01;3.33;;;2.30;;
53881;SDS011;39794;55.782;37.452;2023-12-28T14:24:30;2.20;;;1.73;;
53881;SDS011;39794;55.782;37.452;2023-12-28T14:26:59;5.00;;;3.13;;
53881;SDS011;39794;55.782;37.452;2023-12-28T14:29:28;3.60;;;2.38;;
53881;SDS011;39794;55.782;37.452;2023-12-28T14:31:58;4.03;;;2.30;;
53881;SDS011;39794;55.782;37.452;2023-12-28T14:34:28;4.13;;;2.40;;
53881;SDS011;39794;55.782;37.452;2023-12-28T14:36:58;3.47;;;2.47;;
53881;SDS011;39794;55.782;37.452;2023-12-28T14:39:30;3.33;;;2.67;;
53881;SDS011;39794;55.782;37.452;2023-12-28T14:41:58;3.85;;;2.40;;
53881;SDS011;39794;55.782;37.452;2023-12-28T14:44:30;3.85;;;2.55;;
53881;SDS011;39794;55.782;37.452;2023-12-28T14:47:01;3.25;;;2.08;;
53881;SDS011;39794;55.782;37.452;2023-12-28T14:49:30;5.50;;;2.42;;